Time,TemperatureF,DewpointF,PressureIn,WindDirection,WindDirectionDegrees,WindSpeedMPH,WindSpeedGustMPH,Humidity,HourlyPrecipIn,Conditions,Clouds,dailyrainin,SoftwareType,DateUTC
2013-08-10 00:00:00,73.6,31.3,29.79,West,270,0.0,3.6,21,0.00,,,0.00,VWS V14.01,2013-08-10 07:00:00,
2013-08-10 00:06:00,73.8,31.4,29.79,West,279,7.2,7.2,21,0.00,,,0.00,VWS V14.01,2013-08-10 07:06:00,
2013-08-10 00:11:00,73.8,31.4,29.79,WSW,249,8.7,8.7,21,0.00,,,0.00,VWS V14.01,2013-08-10 07:11:00,
2013-08-10 00:16:00,73.6,31.3,29.79,SW,233,0.0,5.4,21,0.00,,,0.00,VWS V14.01,2013-08-10 07:16:00,
2013-08-10 00:21:00,73.4,31.1,29.79,SE,144,4.9,8.1,21,0.00,,,0.00,VWS V14.01,2013-08-10 07:21:00,
2013-08-10 00:27:00,73.9,31.6,29.85,North,5,2.7,6.3,21,0.00,,,0.00,VWS V14.01,2013-08-10 07:27:00,
2013-08-10 00:33:00,74.1,31.7,29.85,WNW,297,0.0,0.0,21,0.00,,,0.00,VWS V14.01,2013-08-10 07:33:00,
2013-08-10 00:38:00,74.3,31.9,29.85,NW,322,0.0,3.1,21,0.00,,,0.00,VWS V14.01,2013-08-10 07:38:00,
2013-08-10 00:44:00,74.3,31.9,29.85,SSW,199,5.4,5.4,21,0.00,,,0.00,VWS V14.01,2013-08-10 07:44:00,
2013-08-10 00:49:00,74.3,31.9,29.85,SW,226,3.6,6.7,21,0.00,,,0.00,VWS V14.01,2013-08-10 07:49:00,
2013-08-10 00:55:00,74.5,32.0,29.85,SW,219,3.1,6.3,21,0.00,,,0.00,VWS V14.01,2013-08-10 07:55:00,
2013-08-10 01:00:00,72.9,31.8,29.85,WSW,252,8.7,8.7,22,0.00,,,0.00,VWS V14.01,2013-08-10 08:00:00,
2013-08-10 01:06:00,72.5,31.5,29.85,SW,217,5.4,10.1,22,0.00,,,0.00,VWS V14.01,2013-08-10 08:06:00,
2013-08-10 01:12:00,72.5,31.5,29.85,WSW,239,8.3,8.3,22,0.00,,,0.00,VWS V14.01,2013-08-10 08:12:00,
2013-08-10 01:17:00,70.9,31.3,29.85,North,349,5.4,12.3,23,0.00,,,0.00,VWS V14.01,2013-08-10 08:17:00,
2013-08-10 01:23:00,68.4,29.1,29.88,NW,319,3.1,3.1,23,0.00,,,0.00,VWS V14.01,2013-08-10 08:23:00,
2013-08-10 01:28:00,67.1,29.1,29.88,WSW,247,6.3,13.6,24,0.00,,,0.00,VWS V14.01,2013-08-10 08:28:00,
2013-08-10 01:33:00,66.7,28.8,29.88,SW,233,4.0,12.8,24,0.00,,,0.00,VWS V14.01,2013-08-10 08:33:00,
2013-08-10 01:39:00,67.1,29.1,29.88,WSW,247,17.4,17.4,24,0.00,,,0.00,VWS V14.01,2013-08-10 08:39:00,
2013-08-10 01:44:00,67.8,29.7,29.88,WSW,258,6.3,6.3,24,0.00,,,0.00,VWS V14.01,2013-08-10 08:44:00,
2013-08-10 01:50:00,68.0,28.9,29.88,SW,217,7.6,13.2,23,0.00,,,0.00,VWS V14.01,2013-08-10 08:50:00,
2013-08-10 01:56:00,68.0,28.9,29.91,SW,223,3.6,8.3,23,0.00,,,0.00,VWS V14.01,2013-08-10 08:56:00,
2013-08-10 02:01:00,65.8,28.1,29.91,SSW,195,4.0,5.8,24,0.00,,,0.00,VWS V14.01,2013-08-10 09:01:00,
2013-08-10 02:07:00,64.9,27.3,29.88,SW,230,7.6,12.3,24,0.00,,,0.00,VWS V14.01,2013-08-10 09:07:00,
2013-08-10 02:12:00,64.4,26.9,29.88,SW,214,6.3,11.0,24,0.00,,,0.00,VWS V14.01,2013-08-10 09:12:00,
2013-08-10 02:17:00,64.2,26.7,29.88,NW,313,17.0,17.0,24,0.04,,,0.04,VWS V14.01,2013-08-10 09:17:00,
2013-08-10 02:22:00,64.0,26.5,29.88,WSW,249,10.5,10.5,24,0.04,,,0.04,VWS V14.01,2013-08-10 09:22:00,
2013-08-10 02:27:00,63.9,26.4,29.88,WSW,239,10.5,10.5,24,0.04,,,0.04,VWS V14.01,2013-08-10 09:27:00,
2013-08-10 02:33:00,63.7,26.2,29.88,WNW,283,8.1,15.4,24,0.04,,,0.04,VWS V14.01,2013-08-10 09:33:00,
2013-08-10 02:39:00,63.7,26.2,29.91,NW,319,5.8,5.8,24,0.04,,,0.04,VWS V14.01,2013-08-10 09:39:00,
2013-08-10 02:45:00,64.0,26.5,29.91,SW,235,2.7,10.1,24,0.04,,,0.04,VWS V14.01,2013-08-10 09:45:00,
2013-08-10 02:50:00,64.4,26.9,29.91,SW,226,4.0,4.0,24,0.04,,,0.04,VWS V14.01,2013-08-10 09:50:00,
2013-08-10 02:55:00,64.4,26.9,29.91,SW,220,8.1,8.3,24,0.04,,,0.04,VWS V14.01,2013-08-10 09:55:00,
2013-08-10 03:01:00,64.2,26.7,29.91,WSW,256,8.7,16.8,24,0.04,,,0.04,VWS V14.01,2013-08-10 10:01:00,
2013-08-10 03:06:00,63.9,26.4,29.91,SW,230,17.4,19.7,24,0.04,,,0.04,VWS V14.01,2013-08-10 10:06:00,
2013-08-10 03:12:00,63.3,25.9,29.88,SW,225,5.8,10.1,24,0.04,,,0.04,VWS V14.01,2013-08-10 10:12:00,
2013-08-10 03:18:00,63.0,25.6,29.88,NW,321,0.0,5.4,24,0.00,,,0.04,VWS V14.01,2013-08-10 10:18:00,
2013-08-10 03:23:00,63.0,25.6,29.91,West,277,7.6,7.6,24,0.00,,,0.04,VWS V14.01,2013-08-10 10:23:00,
2013-08-10 03:29:00,62.8,25.5,29.91,SW,219,5.4,9.6,24,0.00,,,0.04,VWS V14.01,2013-08-10 10:29:00,
2013-08-10 03:35:00,62.8,25.5,29.91,NNW,340,4.0,6.3,24,0.00,,,0.04,VWS V14.01,2013-08-10 10:35:00,
2013-08-10 03:40:00,62.6,25.3,29.91,South,180,6.3,6.7,24,0.04,,,0.08,VWS V14.01,2013-08-10 10:40:00,
2013-08-10 03:45:00,62.6,25.3,29.91,WNW,299,5.4,5.4,24,0.04,,,0.08,VWS V14.01,2013-08-10 10:45:00,
2013-08-10 03:51:00,62.8,26.5,29.91,NE,51,0.0,0.0,25,0.04,,,0.08,VWS V14.01,2013-08-10 10:51:00,
2013-08-10 03:57:00,62.8,26.5,29.91,NNE,33,0.0,4.9,25,0.04,,,0.08,VWS V14.01,2013-08-10 10:57:00,
2013-08-10 04:03:00,62.8,26.5,29.91,NW,306,0.0,0.0,25,0.04,,,0.08,VWS V14.01,2013-08-10 11:03:00,
2013-08-10 04:08:00,62.6,26.3,29.91,SW,219,3.6,4.5,25,0.04,,,0.08,VWS V14.01,2013-08-10 11:08:00,
2013-08-10 04:14:00,62.8,26.5,29.91,West,262,0.0,3.6,25,0.04,,,0.08,VWS V14.01,2013-08-10 11:14:00,
2013-08-10 04:19:00,62.4,26.2,29.91,SW,227,0.0,0.0,25,0.04,,,0.08,VWS V14.01,2013-08-10 11:19:00,
2013-08-10 04:25:00,62.4,26.2,29.91,SW,230,6.3,6.3,25,0.04,,,0.08,VWS V14.01,2013-08-10 11:25:00,
2013-08-10 04:30:00,62.4,26.2,29.91,SW,227,5.4,5.4,25,0.04,,,0.08,VWS V14.01,2013-08-10 11:30:00,
2013-08-10 04:36:00,62.2,26.0,29.91,SW,234,3.1,5.4,25,0.04,,,0.08,VWS V14.01,2013-08-10 11:36:00,
2013-08-10 04:41:00,62.4,26.2,29.88,SW,217,8.7,8.7,25,0.00,,,0.08,VWS V14.01,2013-08-10 11:41:00,
2013-08-10 04:46:00,62.8,26.5,29.88,WSW,250,5.4,10.1,25,0.00,,,0.08,VWS V14.01,2013-08-10 11:46:00,
2013-08-10 04:52:00,62.4,26.2,29.85,WSW,251,4.0,6.3,25,0.00,,,0.08,VWS V14.01,2013-08-10 11:52:00,
2013-08-10 04:57:00,62.2,26.0,29.85,SSW,194,11.0,12.8,25,0.04,,,0.12,VWS V14.01,2013-08-10 11:57:00,
2013-08-10 05:03:00,63.0,26.6,29.85,NNE,30,2.2,4.0,25,0.04,,,0.12,VWS V14.01,2013-08-10 12:03:00,
2013-08-10 05:08:00,62.6,26.3,29.88,ENE,64,3.6,3.6,25,0.04,,,0.12,VWS V14.01,2013-08-10 12:08:00,
2013-08-10 05:13:00,62.6,26.3,29.88,ESE,112,4.9,5.8,25,0.04,,,0.12,VWS V14.01,2013-08-10 12:13:00,
2013-08-10 05:18:00,63.0,25.6,29.88,East,98,0.0,4.0,24,0.04,,,0.12,VWS V14.01,2013-08-10 12:18:00,
2013-08-10 05:23:00,62.8,26.5,29.91,North,10,0.0,0.0,25,0.04,,,0.12,VWS V14.01,2013-08-10 12:23:00,
2013-08-10 05:28:00,62.6,26.3,29.91,NE,42,0.0,0.0,25,0.04,,,0.12,VWS V14.01,2013-08-10 12:28:00,
2013-08-10 05:33:00,62.6,26.3,29.91,NNE,30,0.0,0.0,25,0.04,,,0.12,VWS V14.01,2013-08-10 12:33:00,
2013-08-10 05:39:00,62.4,26.2,29.91,NNE,31,0.0,0.0,25,0.04,,,0.12,VWS V14.01,2013-08-10 12:39:00,
2013-08-10 05:45:00,62.4,26.2,29.91,NNE,25,0.0,0.0,25,0.04,,,0.12,VWS V14.01,2013-08-10 12:45:00,
2013-08-10 05:50:00,62.4,26.2,29.91,NE,49,0.0,0.0,25,0.04,,,0.12,VWS V14.01,2013-08-10 12:50:00,
2013-08-10 05:56:00,62.2,26.0,29.91,NE,38,0.0,0.0,25,0.00,,,0.12,VWS V14.01,2013-08-10 12:56:00,
2013-08-10 06:02:00,62.2,26.0,29.91,NNE,18,0.0,0.0,25,0.00,,,0.12,VWS V14.01,2013-08-10 13:02:00,
2013-08-10 06:07:00,62.2,26.0,29.94,North,8,0.0,0.0,25,0.00,,,0.12,VWS V14.01,2013-08-10 13:07:00,
2013-08-10 06:12:00,62.1,25.9,29.94,North,5,0.0,0.0,25,0.00,,,0.12,VWS V14.01,2013-08-10 13:12:00,
2013-08-10 06:17:00,62.1,25.9,29.94,North,2,0.0,0.0,25,0.00,,,0.12,VWS V14.01,2013-08-10 13:17:00,
2013-08-10 06:22:00,62.1,25.9,29.94,North,3,0.0,0.0,25,0.00,,,0.12,VWS V14.01,2013-08-10 13:22:00,
2013-08-10 06:27:00,62.1,25.9,29.94,North,1,0.0,0.0,25,0.00,,,0.12,VWS V14.01,2013-08-10 13:27:00,
2013-08-10 06:33:00,61.9,25.7,29.94,North,1,0.0,0.0,25,0.00,,,0.12,VWS V14.01,2013-08-10 13:33:00,
2013-08-10 06:39:00,61.9,25.7,29.94,North,1,0.0,0.0,25,0.00,,,0.12,VWS V14.01,2013-08-10 13:39:00,
2013-08-10 06:44:00,61.9,25.7,29.94,North,1,0.0,0.0,25,0.00,,,0.12,VWS V14.01,2013-08-10 13:44:00,
2013-08-10 06:50:00,62.1,25.9,29.94,North,357,0.0,0.0,25,0.00,,,0.12,VWS V14.01,2013-08-10 13:50:00,
2013-08-10 06:56:00,61.9,25.7,29.94,North,357,0.0,0.0,25,0.00,,,0.12,VWS V14.01,2013-08-10 13:56:00,
2013-08-10 07:02:00,61.9,25.7,29.94,North,357,0.0,0.0,25,0.00,,,0.12,VWS V14.01,2013-08-10 14:02:00,
2013-08-10 07:07:00,62.1,25.9,29.97,North,3,0.0,0.0,25,0.00,,,0.12,VWS V14.01,2013-08-10 14:07:00,
2013-08-10 07:13:00,62.1,25.9,29.97,North,3,0.0,0.0,25,0.00,,,0.12,VWS V14.01,2013-08-10 14:13:00,
2013-08-10 07:19:00,62.2,26.0,29.97,North,3,0.0,0.0,25,0.00,,,0.12,VWS V14.01,2013-08-10 14:19:00,
2013-08-10 07:24:00,62.4,26.2,29.94,North,3,0.0,0.0,25,0.00,,,0.12,VWS V14.01,2013-08-10 14:24:00,
2013-08-10 07:30:00,62.6,26.3,29.94,WSW,238,5.4,5.4,25,0.00,,,0.12,VWS V14.01,2013-08-10 14:30:00,
2013-08-10 07:36:00,62.8,26.5,29.94,SSW,213,6.3,6.3,25,0.00,,,0.12,VWS V14.01,2013-08-10 14:36:00,
2013-08-10 07:41:00,62.8,26.5,29.94,SSW,208,5.8,5.8,25,0.00,,,0.12,VWS V14.01,2013-08-10 14:41:00,
2013-08-10 07:47:00,63.0,26.6,29.94,SW,216,6.7,6.7,25,0.00,,,0.12,VWS V14.01,2013-08-10 14:47:00,
2013-08-10 07:52:00,63.0,26.6,29.97,SW,217,4.0,5.4,25,0.00,,,0.12,VWS V14.01,2013-08-10 14:52:00,
2013-08-10 07:58:00,63.0,26.6,29.97,SW,224,4.9,4.9,25,0.00,,,0.12,VWS V14.01,2013-08-10 14:58:00,
2013-08-10 08:04:00,63.0,26.6,29.97,SW,234,0.0,2.7,25,0.00,,,0.12,VWS V14.01,2013-08-10 15:04:00,
2013-08-10 08:09:00,63.0,26.6,29.97,SW,225,0.0,2.7,25,0.00,,,0.12,VWS V14.01,2013-08-10 15:09:00,
2013-08-10 08:14:00,63.1,26.8,29.97,WSW,238,0.0,0.0,25,0.00,,,0.12,VWS V14.01,2013-08-10 15:14:00,
2013-08-10 08:20:00,63.1,26.8,29.97,SSW,204,4.5,4.5,25,0.00,,,0.12,VWS V14.01,2013-08-10 15:20:00,
2013-08-10 08:25:00,63.3,26.9,29.97,WSW,237,0.0,0.0,25,0.00,,,0.12,VWS V14.01,2013-08-10 15:25:00,
2013-08-10 08:30:00,63.5,27.1,29.97,SW,228,0.0,0.0,25,0.00,,,0.12,VWS V14.01,2013-08-10 15:30:00,
2013-08-10 08:36:00,63.5,27.1,29.97,SW,219,0.0,0.0,25,0.00,,,0.12,VWS V14.01,2013-08-10 15:36:00,
2013-08-10 08:41:00,63.7,26.2,29.97,SW,219,0.0,0.0,24,0.00,,,0.12,VWS V14.01,2013-08-10 15:41:00,
2013-08-10 08:47:00,63.9,26.4,29.97,SW,219,0.0,0.0,24,0.00,,,0.12,VWS V14.01,2013-08-10 15:47:00,
2013-08-10 08:52:00,63.9,26.4,29.97,SW,218,0.0,0.0,24,0.00,,,0.12,VWS V14.01,2013-08-10 15:52:00,
2013-08-10 08:58:00,63.9,26.4,29.97,SSW,211,0.0,0.0,24,0.00,,,0.12,VWS V14.01,2013-08-10 15:58:00,
2013-08-10 09:03:00,63.9,26.4,29.97,SSW,211,0.0,0.0,24,0.00,,,0.12,VWS V14.01,2013-08-10 16:03:00,
2013-08-10 09:08:00,64.0,26.5,29.94,SSW,211,0.0,0.0,24,0.00,,,0.12,VWS V14.01,2013-08-10 16:08:00,
2013-08-10 09:14:00,64.2,26.7,29.94,SSW,211,0.0,0.0,24,0.00,,,0.12,VWS V14.01,2013-08-10 16:14:00,
2013-08-10 09:19:00,64.4,26.9,29.94,SSW,205,0.0,0.0,24,0.00,,,0.12,VWS V14.01,2013-08-10 16:19:00,
2013-08-10 09:25:00,64.6,27.0,29.94,SSW,204,0.0,0.0,24,0.00,,,0.12,VWS V14.01,2013-08-10 16:25:00,
2013-08-10 09:31:00,64.6,27.0,29.94,SSW,203,0.0,0.0,24,0.00,,,0.12,VWS V14.01,2013-08-10 16:31:00,
2013-08-10 09:36:00,64.6,27.0,29.94,South,191,0.0,0.0,24,0.00,,,0.12,VWS V14.01,2013-08-10 16:36:00,
2013-08-10 09:41:00,64.6,27.0,29.94,South,186,0.0,0.0,24,0.00,,,0.12,VWS V14.01,2013-08-10 16:41:00,
2013-08-10 09:46:00,64.8,27.2,29.94,South,186,0.0,0.0,24,0.00,,,0.12,VWS V14.01,2013-08-10 16:46:00,
2013-08-10 09:51:00,64.9,27.3,29.94,South,186,0.0,0.0,24,0.00,,,0.12,VWS V14.01,2013-08-10 16:51:00,
2013-08-10 09:57:00,65.1,27.5,29.94,South,186,0.0,0.0,24,0.00,,,0.12,VWS V14.01,2013-08-10 16:57:00,
2013-08-10 10:02:00,65.3,27.6,29.94,South,186,0.0,0.0,24,0.00,,,0.12,VWS V14.01,2013-08-10 17:02:00,
2013-08-10 10:08:00,65.5,27.8,29.94,South,186,0.0,0.0,24,0.00,,,0.12,VWS V14.01,2013-08-10 17:08:00,
2013-08-10 10:13:00,66.0,28.2,29.94,South,186,0.0,0.0,24,0.00,,,0.12,VWS V14.01,2013-08-10 17:13:00,
2013-08-10 10:18:00,66.4,28.5,29.94,South,186,0.0,0.0,24,0.00,,,0.12,VWS V14.01,2013-08-10 17:18:00,
2013-08-10 10:23:00,66.2,28.4,29.94,South,186,0.0,0.0,24,0.00,,,0.12,VWS V14.01,2013-08-10 17:23:00,
2013-08-10 10:28:00,66.4,28.5,29.94,South,186,0.0,0.0,24,0.00,,,0.12,VWS V14.01,2013-08-10 17:28:00,
2013-08-10 10:34:00,66.6,28.7,29.94,South,186,0.0,0.0,24,0.00,,,0.12,VWS V14.01,2013-08-10 17:34:00,
2013-08-10 10:39:00,66.7,28.8,29.94,South,185,0.0,0.0,24,0.00,,,0.12,VWS V14.01,2013-08-10 17:39:00,
2013-08-10 10:45:00,66.9,29.0,29.94,South,185,0.0,0.0,24,0.00,,,0.12,VWS V14.01,2013-08-10 17:45:00,
2013-08-10 10:50:00,67.3,29.3,29.94,South,183,0.0,0.0,24,0.00,,,0.12,VWS V14.01,2013-08-10 17:50:00,
2013-08-10 10:56:00,67.6,29.6,29.94,South,183,0.0,0.0,24,0.00,,,0.12,VWS V14.01,2013-08-10 17:56:00,
2013-08-10 11:02:00,68.0,28.9,29.94,South,182,0.0,0.0,23,0.00,,,0.12,VWS V14.01,2013-08-10 18:02:00,
2013-08-10 11:07:00,68.2,29.0,29.94,South,182,0.0,0.0,23,0.00,,,0.12,VWS V14.01,2013-08-10 18:07:00,
2013-08-10 11:13:00,68.4,29.1,29.94,South,182,0.0,0.0,23,0.00,,,0.12,VWS V14.01,2013-08-10 18:13:00,
2013-08-10 11:18:00,68.5,29.3,29.94,South,182,0.0,0.0,23,0.00,,,0.12,VWS V14.01,2013-08-10 18:18:00,
2013-08-10 11:24:00,68.7,29.5,29.94,South,185,0.0,0.0,23,0.00,,,0.12,VWS V14.01,2013-08-10 18:24:00,
2013-08-10 11:29:00,69.3,29.9,29.94,South,185,0.0,0.0,23,0.00,,,0.12,VWS V14.01,2013-08-10 18:29:00,
2013-08-10 11:35:00,69.6,30.2,29.94,South,185,0.0,0.0,23,0.00,,,0.12,VWS V14.01,2013-08-10 18:35:00,
2013-08-10 11:40:00,69.6,30.2,29.94,South,185,0.0,0.0,23,0.00,,,0.12,VWS V14.01,2013-08-10 18:40:00,
2013-08-10 11:46:00,69.8,30.4,29.94,South,185,0.0,0.0,23,0.00,,,0.12,VWS V14.01,2013-08-10 18:46:00,
2013-08-10 11:52:00,70.2,30.7,29.94,South,184,0.0,0.0,23,0.00,,,0.12,VWS V14.01,2013-08-10 18:52:00,
2013-08-10 11:57:00,70.2,30.7,29.94,South,185,0.0,0.0,23,0.00,,,0.12,VWS V14.01,2013-08-10 18:57:00,
2013-08-10 12:03:00,70.5,31.0,29.94,South,186,0.0,0.0,23,0.00,,,0.12,VWS V14.01,2013-08-10 19:03:00,
2013-08-10 12:08:00,70.5,31.0,29.91,South,186,0.0,0.0,23,0.00,,,0.12,VWS V14.01,2013-08-10 19:08:00,
2013-08-10 12:14:00,70.9,31.3,29.91,South,187,0.0,0.0,23,0.00,,,0.12,VWS V14.01,2013-08-10 19:14:00,
2013-08-10 12:19:00,71.4,31.7,29.91,South,187,0.0,0.0,23,0.00,,,0.12,VWS V14.01,2013-08-10 19:19:00,
2013-08-10 12:25:00,72.3,31.4,29.91,South,187,0.0,0.0,22,0.00,,,0.12,VWS V14.01,2013-08-10 19:25:00,
2013-08-10 12:31:00,73.4,32.3,29.91,South,187,0.0,0.0,22,0.00,,,0.12,VWS V14.01,2013-08-10 19:31:00,
2013-08-10 12:37:00,73.8,32.6,29.91,South,187,0.0,0.0,22,0.00,,,0.12,VWS V14.01,2013-08-10 19:37:00,
2013-08-10 12:42:00,74.5,32.0,29.91,South,179,0.0,0.0,21,0.00,,,0.12,VWS V14.01,2013-08-10 19:42:00,
2013-08-10 12:48:00,74.5,32.0,29.91,South,178,0.0,0.0,21,0.00,,,0.12,VWS V14.01,2013-08-10 19:48:00,
2013-08-10 12:53:00,74.3,31.9,29.91,South,179,0.0,0.0,21,0.00,,,0.12,VWS V14.01,2013-08-10 19:53:00,
2013-08-10 12:59:00,74.3,33.0,29.91,South,179,0.0,0.0,22,0.00,,,0.12,VWS V14.01,2013-08-10 19:59:00,
2013-08-10 13:05:00,74.8,33.5,29.91,South,179,0.0,0.0,22,0.00,,,0.12,VWS V14.01,2013-08-10 20:05:00,
2013-08-10 13:10:00,74.7,33.3,29.91,South,178,0.0,0.0,22,0.00,,,0.12,VWS V14.01,2013-08-10 20:10:00,
2013-08-10 13:15:00,74.8,33.5,29.91,South,176,0.0,0.0,22,0.00,,,0.12,VWS V14.01,2013-08-10 20:15:00,
2013-08-10 13:20:00,75.4,32.8,29.91,South,176,0.0,0.0,21,0.00,,,0.12,VWS V14.01,2013-08-10 20:20:00,
2013-08-10 13:25:00,76.5,33.7,29.91,ESE,114,4.9,4.9,21,0.00,,,0.12,VWS V14.01,2013-08-10 20:25:00,
2013-08-10 13:30:00,78.1,35.0,29.91,ESE,110,0.0,0.0,21,0.00,,,0.12,VWS V14.01,2013-08-10 20:30:00,
2013-08-10 13:36:00,79.7,35.1,29.91,ESE,102,0.0,0.0,20,0.00,,,0.12,VWS V14.01,2013-08-10 20:36:00,
2013-08-10 13:41:00,80.2,35.6,29.91,SE,127,0.0,0.0,20,0.00,,,0.12,VWS V14.01,2013-08-10 20:41:00,
2013-08-10 13:46:00,79.5,35.0,29.91,ESE,109,5.4,5.4,20,0.00,,,0.12,VWS V14.01,2013-08-10 20:46:00,
2013-08-10 13:52:00,80.2,35.6,29.88,SE,124,0.0,2.2,20,0.00,,,0.12,VWS V14.01,2013-08-10 20:52:00,
2013-08-10 13:58:00,80.2,35.6,29.88,SE,126,0.0,0.0,20,0.00,,,0.12,VWS V14.01,2013-08-10 20:58:00,
2013-08-10 14:03:00,80.4,35.7,29.88,SE,127,0.0,0.0,20,0.00,,,0.12,VWS V14.01,2013-08-10 21:03:00,
2013-08-10 14:09:00,81.1,36.3,29.88,SE,127,0.0,0.0,20,0.00,,,0.12,VWS V14.01,2013-08-10 21:09:00,
2013-08-10 14:15:00,80.8,36.0,29.88,SE,140,0.0,0.0,20,0.00,,,0.12,VWS V14.01,2013-08-10 21:15:00,
2013-08-10 14:20:00,81.1,35.0,29.88,East,96,4.0,4.0,19,0.00,,,0.12,VWS V14.01,2013-08-10 21:20:00,
2013-08-10 14:26:00,82.8,36.3,29.88,ESE,117,0.0,0.0,19,0.00,,,0.12,VWS V14.01,2013-08-10 21:26:00,
2013-08-10 14:31:00,83.3,36.8,29.88,SE,127,0.0,0.0,19,0.00,,,0.12,VWS V14.01,2013-08-10 21:31:00,
2013-08-10 14:36:00,83.1,36.6,29.88,SE,131,0.0,0.0,19,0.00,,,0.12,VWS V14.01,2013-08-10 21:36:00,
2013-08-10 14:41:00,83.3,36.8,29.88,SE,129,0.0,0.0,19,0.00,,,0.12,VWS V14.01,2013-08-10 21:41:00,
2013-08-10 14:47:00,83.1,36.6,29.88,ESE,112,3.1,4.0,19,0.00,,,0.12,VWS V14.01,2013-08-10 21:47:00,
2013-08-10 14:52:00,84.0,33.0,29.88,East,88,3.6,3.6,16,0.00,,,0.12,VWS V14.01,2013-08-10 21:52:00,
2013-08-10 14:57:00,83.7,32.8,29.88,ESE,103,0.0,0.0,16,0.00,,,0.12,VWS V14.01,2013-08-10 21:57:00,
2013-08-10 15:02:00,83.7,32.8,29.88,East,98,5.4,5.4,16,0.00,,,0.12,VWS V14.01,2013-08-10 22:02:00,
2013-08-10 15:07:00,84.6,33.5,29.88,East,97,3.1,5.4,16,0.00,,,0.12,VWS V14.01,2013-08-10 22:07:00,
2013-08-10 15:13:00,85.1,33.9,29.88,East,100,3.1,3.1,16,0.00,,,0.12,VWS V14.01,2013-08-10 22:13:00,
2013-08-10 15:19:00,84.7,33.6,29.88,ESE,117,3.1,4.9,16,0.00,,,0.12,VWS V14.01,2013-08-10 22:19:00,
2013-08-10 15:24:00,83.3,32.5,29.88,ESE,115,2.7,4.0,16,0.00,,,0.12,VWS V14.01,2013-08-10 22:24:00,
2013-08-10 15:30:00,83.8,32.9,29.88,ESE,118,0.0,0.0,16,0.00,,,0.12,VWS V14.01,2013-08-10 22:30:00,
2013-08-10 15:35:00,84.2,33.2,29.88,ESE,120,0.0,0.0,16,0.00,,,0.12,VWS V14.01,2013-08-10 22:35:00,
2013-08-10 15:41:00,84.2,33.2,29.85,ESE,116,0.0,0.0,16,0.00,,,0.12,VWS V14.01,2013-08-10 22:41:00,
2013-08-10 15:46:00,84.6,33.5,29.85,ESE,118,0.0,0.0,16,0.00,,,0.12,VWS V14.01,2013-08-10 22:46:00,
2013-08-10 15:51:00,84.7,33.6,29.85,SE,137,0.0,0.0,16,0.00,,,0.12,VWS V14.01,2013-08-10 22:51:00,
2013-08-10 15:57:00,84.9,28.6,29.85,SSE,151,0.0,0.0,13,0.00,,,0.12,VWS V14.01,2013-08-10 22:57:00,
2013-08-10 16:02:00,84.9,28.6,29.85,SSE,151,0.0,0.0,13,0.00,,,0.12,VWS V14.01,2013-08-10 23:02:00,
2013-08-10 16:08:00,84.7,28.5,29.85,SSE,152,0.0,0.0,13,0.00,,,0.12,VWS V14.01,2013-08-10 23:08:00,
2013-08-10 16:13:00,84.6,28.4,29.85,SSE,154,0.0,0.0,13,0.00,,,0.12,VWS V14.01,2013-08-10 23:13:00,
2013-08-10 16:19:00,84.7,28.5,29.85,SSE,154,0.0,0.0,13,0.00,,,0.12,VWS V14.01,2013-08-10 23:19:00,
2013-08-10 16:25:00,85.1,33.9,29.85,SSE,156,0.0,0.0,16,0.00,,,0.12,VWS V14.01,2013-08-10 23:25:00,
2013-08-10 16:30:00,84.9,28.6,29.85,SSE,157,0.0,0.0,13,0.00,,,0.12,VWS V14.01,2013-08-10 23:30:00,
2013-08-10 16:36:00,84.7,33.6,29.85,SSE,158,0.0,0.0,16,0.00,,,0.12,VWS V14.01,2013-08-10 23:36:00,
2013-08-10 16:42:00,84.6,28.4,29.85,SSE,160,0.0,0.0,13,0.00,,,0.12,VWS V14.01,2013-08-10 23:42:00,
2013-08-10 16:47:00,84.0,33.0,29.85,SSE,162,0.0,0.0,16,0.00,,,0.12,VWS V14.01,2013-08-10 23:47:00,
2013-08-10 16:52:00,83.7,37.1,29.85,SSE,162,0.0,0.0,19,0.00,,,0.12,VWS V14.01,2013-08-10 23:52:00,
2013-08-10 16:58:00,83.5,36.9,29.85,SSE,162,0.0,0.0,19,0.00,,,0.12,VWS V14.01,2013-08-10 23:58:00,
2013-08-10 17:03:00,83.7,32.8,29.85,SSE,163,0.0,0.0,16,0.00,,,0.12,VWS V14.01,2013-08-11 00:03:00,
2013-08-10 17:09:00,83.5,36.9,29.85,SSE,163,0.0,0.0,19,0.00,,,0.12,VWS V14.01,2013-08-11 00:09:00,
2013-08-10 17:14:00,82.4,36.0,29.85,SW,227,6.3,7.6,19,0.00,,,0.12,VWS V14.01,2013-08-11 00:14:00,
2013-08-10 17:20:00,81.9,35.6,29.85,SSW,207,5.4,6.3,19,0.00,,,0.12,VWS V14.01,2013-08-11 00:20:00,
2013-08-10 17:26:00,83.1,36.6,29.85,WSW,238,8.3,8.3,19,0.00,,,0.12,VWS V14.01,2013-08-11 00:26:00,
2013-08-10 17:32:00,83.1,36.6,29.85,SW,235,8.3,10.1,19,0.00,,,0.12,VWS V14.01,2013-08-11 00:32:00,
2013-08-10 17:37:00,82.6,36.2,29.85,SW,227,4.9,4.9,19,0.00,,,0.12,VWS V14.01,2013-08-11 00:37:00,
2013-08-10 17:43:00,81.3,35.2,29.85,WSW,257,0.0,0.0,19,0.00,,,0.12,VWS V14.01,2013-08-11 00:43:00,
2013-08-10 17:49:00,81.1,36.3,29.85,SW,234,0.0,3.6,20,0.00,,,0.12,VWS V14.01,2013-08-11 00:49:00,
2013-08-10 17:55:00,81.0,36.2,29.85,SSW,211,5.4,5.4,20,0.00,,,0.12,VWS V14.01,2013-08-11 00:55:00,
2013-08-10 18:00:00,80.6,35.9,29.85,SW,234,6.3,6.3,20,0.00,,,0.12,VWS V14.01,2013-08-11 01:00:00,
2013-08-10 18:06:00,80.2,35.6,29.85,SSW,211,5.4,6.3,20,0.00,,,0.12,VWS V14.01,2013-08-11 01:06:00,
2013-08-10 18:11:00,79.7,35.1,29.85,WSW,252,6.3,10.5,20,0.00,,,0.12,VWS V14.01,2013-08-11 01:11:00,
2013-08-10 18:17:00,79.5,35.0,29.85,SW,223,8.7,8.7,20,0.00,,,0.12,VWS V14.01,2013-08-11 01:17:00,
2013-08-10 18:22:00,79.0,34.5,29.85,SW,225,8.7,11.4,20,0.00,,,0.12,VWS V14.01,2013-08-11 01:22:00,
2013-08-10 18:27:00,78.8,34.4,29.85,SW,235,9.6,11.4,20,0.00,,,0.12,VWS V14.01,2013-08-11 01:27:00,
2013-08-10 18:33:00,78.1,35.0,29.85,WSW,254,10.1,15.0,21,0.00,,,0.12,VWS V14.01,2013-08-11 01:33:00,
2013-08-10 18:38:00,77.5,34.6,29.85,SW,218,13.2,13.2,21,0.00,,,0.12,VWS V14.01,2013-08-11 01:38:00,
2013-08-10 18:43:00,77.0,34.1,29.85,WSW,251,15.4,21.0,21,0.00,,,0.12,VWS V14.01,2013-08-11 01:43:00,
2013-08-10 18:48:00,76.8,34.0,29.85,WSW,238,5.8,8.3,21,0.00,,,0.12,VWS V14.01,2013-08-11 01:48:00,
2013-08-10 18:53:00,76.3,33.5,29.88,West,277,6.3,17.0,21,0.00,,,0.12,VWS V14.01,2013-08-11 01:53:00,
2013-08-10 18:58:00,75.7,33.1,29.88,West,268,4.9,12.8,21,0.00,,,0.12,VWS V14.01,2013-08-11 01:58:00,
2013-08-10 19:04:00,75.4,32.8,29.88,SW,221,7.6,8.1,21,0.00,,,0.12,VWS V14.01,2013-08-11 02:04:00,
2013-08-10 19:09:00,75.0,33.6,29.88,SSW,208,6.3,11.0,22,0.00,,,0.12,VWS V14.01,2013-08-11 02:09:00,
2013-08-10 19:14:00,74.8,33.5,29.88,SW,227,7.6,12.8,22,0.00,,,0.12,VWS V14.01,2013-08-11 02:14:00,
2013-08-10 19:20:00,74.1,32.9,29.88,SW,226,13.2,13.6,22,0.00,,,0.12,VWS V14.01,2013-08-11 02:20:00,
2013-08-10 19:26:00,73.8,32.6,29.91,SW,226,16.3,16.3,22,0.00,,,0.12,VWS V14.01,2013-08-11 02:26:00,
2013-08-10 19:31:00,73.4,32.3,29.91,WSW,248,14.1,14.1,22,0.00,,,0.12,VWS V14.01,2013-08-11 02:31:00,
2013-08-10 19:37:00,73.2,32.1,29.91,SW,232,10.1,13.2,22,0.00,,,0.12,VWS V14.01,2013-08-11 02:37:00,
2013-08-10 19:42:00,72.9,31.8,29.91,SSW,212,6.3,8.3,22,0.00,,,0.12,VWS V14.01,2013-08-11 02:42:00,
2013-08-10 19:47:00,72.7,31.7,29.91,SSW,199,8.3,13.2,22,0.00,,,0.12,VWS V14.01,2013-08-11 02:47:00,
2013-08-10 19:53:00,72.9,31.8,29.91,SW,225,12.8,15.9,22,0.00,,,0.12,VWS V14.01,2013-08-11 02:53:00,
2013-08-10 19:58:00,72.9,31.8,29.91,SW,225,12.3,12.3,22,0.00,,,0.12,VWS V14.01,2013-08-11 02:58:00,
2013-08-10 20:05:00,72.5,31.5,29.91,WSW,242,10.5,14.1,22,0.00,,,0.12,VWS V14.01,2013-08-11 03:05:00,
2013-08-10 20:12:00,72.3,31.4,29.91,SW,220,10.5,13.2,22,0.00,,,0.12,VWS V14.01,2013-08-11 03:12:00,
2013-08-10 20:17:00,72.1,31.2,29.91,SW,226,8.1,8.1,22,0.00,,,0.12,VWS V14.01,2013-08-11 03:17:00,
2013-08-10 20:23:00,72.0,31.1,29.91,SW,233,8.7,10.1,22,0.00,,,0.12,VWS V14.01,2013-08-11 03:23:00,
2013-08-10 20:31:00,71.6,30.8,29.91,WSW,257,6.3,8.7,22,0.00,,,0.12,VWS V14.01,2013-08-11 03:31:00,
2013-08-10 20:36:00,71.6,30.8,29.91,SW,229,4.0,8.7,22,0.00,,,0.12,VWS V14.01,2013-08-11 03:36:00,
2013-08-10 20:42:00,71.4,31.7,29.91,SW,217,3.6,6.3,23,0.00,,,0.12,VWS V14.01,2013-08-11 03:42:00,
2013-08-10 20:47:00,71.1,31.4,29.91,WSW,253,3.1,8.3,23,0.00,,,0.12,VWS V14.01,2013-08-11 03:47:00,
2013-08-10 20:53:00,70.3,30.8,29.91,SSW,202,11.0,11.0,23,0.00,,,0.12,VWS V14.01,2013-08-11 03:53:00,
2013-08-10 20:58:00,69.8,30.4,29.91,WSW,239,3.6,6.3,23,0.00,,,0.12,VWS V14.01,2013-08-11 03:58:00,
2013-08-10 21:02:00,69.4,30.1,29.91,WSW,246,8.3,8.3,23,0.00,,,0.12,VWS V14.01,2013-08-11 04:02:00,
2013-08-10 21:03:00,69.4,30.1,29.91,WSW,240,11.0,11.0,23,0.00,,,0.12,VWS V14.01,2013-08-11 04:03:00,
2013-08-10 21:04:00,69.4,30.1,29.91,SSW,194,4.0,11.0,23,0.00,,,0.12,VWS V14.01,2013-08-11 04:04:00,
2013-08-10 21:09:00,69.1,29.8,29.94,SSW,213,7.6,7.6,23,0.00,,,0.12,VWS V14.01,2013-08-11 04:09:00,
2013-08-10 21:14:00,68.9,29.6,29.94,South,187,3.1,8.1,23,0.00,,,0.12,VWS V14.01,2013-08-11 04:14:00,
2013-08-10 21:18:00,68.9,29.6,29.94,SW,233,10.5,10.5,23,0.00,,,0.12,VWS V14.01,2013-08-11 04:18:00,
2013-08-10 21:24:00,67.6,28.5,29.91,NW,312,3.1,3.1,23,0.00,,,0.12,VWS V14.01,2013-08-11 04:24:00,
2013-08-10 21:29:00,67.5,29.4,29.91,SSW,200,6.7,6.7,24,0.00,,,0.12,VWS V14.01,2013-08-11 04:29:00,
2013-08-10 21:34:00,67.6,29.6,29.91,SSW,211,6.7,6.7,24,0.00,,,0.12,VWS V14.01,2013-08-11 04:34:00,
2013-08-10 21:40:00,68.0,28.9,29.91,WSW,238,5.4,8.3,23,0.00,,,0.12,VWS V14.01,2013-08-11 04:40:00,
2013-08-10 21:46:00,68.0,28.9,29.91,SSW,204,4.0,8.7,23,0.00,,,0.12,VWS V14.01,2013-08-11 04:46:00,
2013-08-10 21:52:00,68.2,29.0,29.91,SW,221,8.3,8.3,23,0.00,,,0.12,VWS V14.01,2013-08-11 04:52:00,
2013-08-10 21:57:00,68.0,28.9,29.91,WSW,252,5.4,6.3,23,0.00,,,0.12,VWS V14.01,2013-08-11 04:57:00,
2013-08-10 22:03:00,67.8,29.7,29.91,WNW,282,7.6,8.3,24,0.00,,,0.12,VWS V14.01,2013-08-11 05:03:00,
2013-08-10 22:08:00,67.8,29.7,29.91,SSW,211,5.8,9.6,24,0.00,,,0.12,VWS V14.01,2013-08-11 05:08:00,
2013-08-10 22:14:00,67.8,29.7,29.91,West,270,2.2,8.7,24,0.00,,,0.12,VWS V14.01,2013-08-11 05:14:00,
2013-08-10 22:20:00,67.8,29.7,29.91,SW,228,5.4,10.5,24,0.00,,,0.12,VWS V14.01,2013-08-11 05:20:00,
2013-08-10 22:25:00,68.0,28.9,29.91,South,191,6.3,6.3,23,0.00,,,0.12,VWS V14.01,2013-08-11 05:25:00,
2013-08-10 22:31:00,68.0,28.9,29.91,WSW,254,5.4,8.1,23,0.00,,,0.12,VWS V14.01,2013-08-11 05:31:00,
2013-08-10 22:38:00,67.8,29.7,29.91,SSW,206,5.8,6.3,24,0.00,,,0.12,VWS V14.01,2013-08-11 05:38:00,
2013-08-10 22:44:00,67.8,29.7,29.91,SW,222,3.6,6.3,24,0.00,,,0.12,VWS V14.01,2013-08-11 05:44:00,
2013-08-10 22:50:00,67.6,29.6,29.91,West,267,6.3,10.5,24,0.00,,,0.12,VWS V14.01,2013-08-11 05:50:00,
2013-08-10 22:55:00,67.6,29.6,29.91,SW,214,5.4,10.1,24,0.00,,,0.12,VWS V14.01,2013-08-11 05:55:00,
2013-08-10 23:00:00,67.6,29.6,29.91,SW,230,5.8,5.8,24,0.00,,,0.12,VWS V14.01,2013-08-11 06:00:00,
2013-08-10 23:06:00,67.6,29.6,29.94,SW,236,8.1,8.1,24,0.00,,,0.12,VWS V14.01,2013-08-11 06:06:00,
2013-08-10 23:12:00,67.8,29.7,29.94,SW,227,5.8,8.7,24,0.00,,,0.12,VWS V14.01,2013-08-11 06:12:00,
2013-08-10 23:17:00,67.8,29.7,29.94,SSW,211,8.1,10.5,24,0.00,,,0.12,VWS V14.01,2013-08-11 06:17:00,
2013-08-10 23:22:00,68.0,28.9,29.94,SW,221,6.3,11.0,23,0.00,,,0.12,VWS V14.01,2013-08-11 06:22:00,
2013-08-10 23:27:00,68.2,29.0,29.94,WSW,242,13.2,13.2,23,0.00,,,0.12,VWS V14.01,2013-08-11 06:27:00,
2013-08-10 23:33:00,68.4,29.1,29.94,SW,233,10.1,15.4,23,0.00,,,0.12,VWS V14.01,2013-08-11 06:33:00,
2013-08-10 23:38:00,68.4,29.1,29.91,West,277,13.6,13.6,23,0.00,,,0.12,VWS V14.01,2013-08-11 06:38:00,
2013-08-10 23:44:00,68.4,29.1,29.91,SSW,211,11.0,11.0,23,0.00,,,0.12,VWS V14.01,2013-08-11 06:44:00,
2013-08-10 23:50:00,68.5,29.3,29.91,SW,233,10.1,10.1,23,0.00,,,0.12,VWS V14.01,2013-08-11 06:50:00,
2013-08-10 23:56:00,68.4,29.1,29.91,SW,235,8.3,13.2,23,0.00,,,0.12,VWS V14.01,2013-08-11 06:56:00,